createdAt,value
2018-06-02T00:02:59.331Z,18.00
2018-06-02T00:07:54.460Z,17.90
2018-06-02T00:12:48.833Z,17.90
2018-06-02T00:17:43.253Z,17.90
2018-06-02T00:22:37.612Z,17.90
2018-06-02T00:27:31.992Z,17.90
2018-06-02T00:32:27.317Z,17.80
2018-06-02T00:37:21.685Z,17.80
2018-06-02T00:42:16.283Z,17.80
2018-06-02T00:47:11.449Z,17.80
2018-06-02T00:52:05.861Z,17.80
2018-06-02T00:57:00.225Z,17.80
2018-06-02T01:01:54.947Z,17.80
2018-06-02T01:06:50.085Z,17.70
2018-06-02T01:11:49.393Z,17.70
2018-06-02T01:16:46.197Z,17.70
2018-06-02T01:21:40.542Z,17.60
2018-06-02T01:26:34.895Z,17.60
2018-06-02T01:31:29.259Z,17.60
2018-06-02T01:36:24.525Z,17.70
2018-06-02T01:41:18.897Z,17.70
2018-06-02T01:46:14.184Z,17.70
2018-06-02T01:51:08.572Z,17.70
2018-06-02T01:56:02.956Z,17.70
2018-06-02T02:00:57.294Z,17.70
2018-06-02T02:05:51.675Z,17.70
2018-06-02T02:10:46.049Z,17.70
2018-06-02T02:15:40.441Z,17.70
2018-06-02T02:20:35.029Z,17.70
2018-06-02T02:25:30.171Z,17.70
2018-06-02T02:30:25.310Z,17.70
2018-06-02T02:35:19.697Z,17.70
2018-06-02T02:40:14.062Z,17.70
2018-06-02T02:45:08.558Z,17.70
2018-06-02T02:50:02.934Z,17.70
2018-06-02T02:54:57.301Z,17.70
2018-06-02T02:59:52.674Z,17.70
2018-06-02T03:04:47.536Z,17.70
2018-06-02T03:09:42.352Z,17.70
2018-06-02T03:14:36.769Z,17.70
2018-06-02T03:19:31.155Z,17.80
2018-06-02T03:24:27.028Z,17.80
2018-06-02T03:29:21.414Z,17.80
2018-06-02T03:34:15.789Z,17.80
2018-06-02T03:39:10.922Z,17.80
2018-06-02T03:44:06.075Z,17.80
2018-06-02T03:49:00.454Z,17.80
2018-06-02T03:53:55.091Z,17.80
2018-06-02T03:58:49.464Z,17.80
2018-06-02T04:03:43.947Z,17.80
2018-06-02T04:08:39.084Z,17.90
2018-06-02T04:13:34.240Z,17.90
2018-06-02T04:18:28.624Z,17.90
2018-06-02T04:23:22.976Z,18.00
2018-06-02T04:28:17.331Z,18.10
2018-06-02T04:33:11.780Z,18.10
2018-06-02T04:38:05.435Z,18.10
2018-06-02T04:42:59.804Z,18.20
2018-06-02T04:47:55.183Z,18.20
2018-06-02T04:52:49.560Z,18.20
2018-06-02T04:57:43.910Z,18.20
2018-06-02T05:02:38.276Z,18.20
2018-06-02T05:07:32.657Z,18.20
2018-06-02T05:12:27.049Z,18.20
2018-06-02T05:17:21.510Z,18.30
2018-06-02T05:22:15.939Z,18.40
2018-06-02T05:27:13.005Z,18.80
2018-06-02T05:32:08.140Z,18.90
2018-06-02T05:37:03.043Z,19.00
2018-06-02T05:41:58.347Z,19.10
2018-06-02T05:46:52.888Z,19.10
2018-06-02T05:51:48.025Z,19.40
2018-06-02T05:56:42.399Z,19.40
2018-06-02T06:01:37.561Z,19.70
2018-06-02T06:06:31.914Z,19.70
2018-06-02T06:11:27.053Z,19.90
2018-06-02T06:16:22.200Z,20.00
2018-06-02T06:21:17.529Z,20.10
2018-06-02T06:26:11.894Z,20.00
2018-06-02T06:31:06.819Z,20.40
2018-06-02T06:36:01.957Z,20.70
2018-06-02T06:40:56.391Z,20.70
2018-06-02T06:45:50.517Z,21.20
2018-06-02T06:50:44.877Z,21.60
2018-06-02T06:55:40.408Z,22.70
2018-06-02T07:00:34.942Z,22.60
2018-06-02T07:05:29.310Z,23.30
2018-06-02T07:10:23.730Z,23.80
2018-06-02T07:15:18.142Z,24.10
2018-06-02T07:20:12.270Z,24.40
2018-06-02T07:25:07.436Z,25.90
2018-06-02T07:30:02.132Z,25.80
2018-06-02T07:34:56.588Z,26.20
2018-06-02T07:39:51.714Z,27.80
2018-06-02T07:44:46.071Z,27.70
2018-06-02T07:49:40.433Z,27.90
2018-06-02T07:54:35.547Z,28.30
2018-06-02T07:59:30.075Z,28.20
2018-06-02T08:04:24.812Z,27.90
2018-06-02T08:09:19.221Z,27.10
2018-06-02T08:14:13.734Z,26.30
2018-06-02T08:19:08.134Z,25.70
2018-06-02T08:24:02.837Z,26.10
2018-06-02T08:28:57.222Z,26.10
2018-06-02T08:33:51.607Z,25.90
2018-06-02T08:38:46.785Z,28.40
2018-06-02T08:43:41.166Z,28.30
2018-06-02T08:48:35.825Z,31.20
2018-06-02T08:53:30.462Z,38.20
2018-06-02T08:58:25.106Z,43.10
2018-06-02T09:03:19.893Z,47.40
2018-06-02T09:08:15.462Z,52.00
2018-06-02T09:13:10.122Z,52.00
2018-06-02T09:18:04.530Z,50.90
2018-06-02T09:22:59.173Z,48.40
2018-06-02T09:27:53.855Z,46.00
2018-06-02T09:32:48.647Z,46.70
2018-06-02T09:37:43.295Z,43.70
2018-06-02T09:42:38.690Z,43.00
2018-06-02T09:47:33.327Z,42.90
2018-06-02T09:52:28.721Z,38.80
2018-06-02T09:57:23.361Z,38.70
2018-06-02T10:02:18.755Z,35.10
2018-06-02T10:07:13.396Z,35.00
2018-06-02T10:12:08.148Z,33.70
2018-06-02T10:17:02.787Z,32.50
2018-06-02T10:21:57.428Z,31.80
2018-06-02T10:26:52.825Z,30.40
2018-06-02T10:31:47.467Z,30.30
2018-06-02T10:36:42.097Z,29.90
2018-06-02T10:41:36.724Z,29.60
2018-06-02T10:46:31.455Z,29.10
2018-06-02T10:51:26.849Z,28.40
2018-06-02T10:56:21.257Z,28.30
2018-06-02T11:01:15.630Z,28.60
2018-06-02T11:06:09.987Z,28.70
2018-06-02T11:11:05.090Z,28.70
2018-06-02T11:15:59.694Z,28.70
2018-06-02T11:20:54.328Z,28.60
2018-06-02T11:25:49.012Z,28.90
2018-06-02T11:30:43.819Z,29.00
2018-06-02T11:35:38.457Z,29.40
2018-06-02T11:40:33.106Z,29.40
2018-06-02T11:45:27.944Z,29.50
2018-06-02T11:50:22.734Z,29.70
2018-06-02T11:55:18.163Z,29.90
2018-06-02T12:00:12.796Z,29.90
2018-06-02T12:05:07.416Z,29.50
2018-06-02T12:10:02.075Z,29.20
2018-06-02T12:14:57.611Z,28.60
2018-06-02T12:19:51.993Z,28.60
2018-06-02T12:24:46.626Z,28.30
2018-06-02T12:29:40.988Z,28.10
2018-06-02T12:34:36.114Z,28.00
2018-06-02T12:39:31.233Z,27.60
2018-06-02T12:44:26.348Z,27.50
2018-06-02T12:49:21.475Z,27.40
2018-06-02T12:54:15.844Z,27.40
2018-06-02T12:59:10.183Z,27.50
2018-06-02T13:04:05.330Z,27.80
2018-06-02T13:08:59.766Z,27.80
2018-06-02T13:13:54.223Z,27.90
2018-06-02T13:18:48.596Z,28.20
2018-06-02T13:23:43.221Z,28.40
2018-06-02T13:28:37.962Z,28.40
2018-06-02T13:33:33.352Z,28.30
2018-06-02T13:38:27.996Z,28.30
2018-06-02T13:43:23.402Z,28.00
2018-06-02T13:48:17.774Z,28.00
2018-06-02T13:53:13.075Z,27.80
2018-06-02T13:58:07.432Z,27.80
2018-06-02T14:03:01.790Z,27.80
2018-06-02T14:07:56.937Z,28.10
2018-06-02T14:12:51.590Z,28.10
2018-06-02T14:17:46.980Z,28.30
2018-06-02T14:22:41.602Z,28.30
2018-06-02T14:27:35.939Z,28.00
2018-06-02T14:32:30.294Z,27.50
2018-06-02T14:37:25.447Z,27.00
2018-06-02T14:42:20.035Z,27.00
2018-06-02T14:47:14.400Z,27.00
2018-06-02T14:52:10.374Z,26.60
2018-06-02T14:57:04.767Z,26.50
2018-06-02T15:01:59.965Z,26.40
2018-06-02T15:06:54.324Z,26.40
2018-06-02T15:11:48.696Z,26.30
2018-06-02T15:16:43.066Z,26.20
2018-06-02T15:21:37.531Z,26.10
2018-06-02T15:26:32.280Z,25.90
2018-06-02T15:31:26.650Z,25.80
2018-06-02T15:36:21.200Z,26.00
2018-06-02T15:41:16.530Z,26.00
2018-06-02T15:46:11.677Z,25.80
2018-06-02T15:51:06.496Z,25.90
2018-06-02T15:56:00.965Z,25.90
2018-06-02T16:00:55.498Z,25.90
2018-06-02T16:05:49.882Z,26.00
2018-06-02T16:10:45.045Z,26.00
2018-06-02T16:15:39.422Z,26.00
2018-06-02T16:20:33.804Z,25.60
2018-06-02T16:25:28.158Z,25.20
2018-06-02T16:30:22.517Z,24.70
2018-06-02T16:35:17.962Z,24.70
2018-06-02T16:40:13.137Z,24.80
2018-06-02T16:45:07.865Z,24.80
2018-06-02T16:50:03.237Z,25.00
2018-06-02T16:54:58.101Z,25.00
2018-06-02T16:59:52.478Z,25.10
2018-06-02T17:04:46.869Z,24.90
2018-06-02T17:09:41.233Z,24.80
2018-06-02T17:14:36.383Z,24.40
2018-06-02T17:19:30.894Z,24.40
2018-06-02T17:24:25.268Z,24.30
2018-06-02T17:29:19.637Z,24.20
2018-06-02T17:34:13.986Z,24.10
2018-06-02T17:39:08.097Z,24.00
2018-06-02T17:44:02.471Z,23.90
2018-06-02T17:48:57.732Z,23.60
2018-06-02T17:53:52.233Z,23.60
2018-06-02T17:58:46.599Z,23.50
2018-06-02T18:03:42.099Z,23.40
2018-06-02T18:08:36.515Z,23.20
2018-06-02T18:13:30.757Z,23.00
2018-06-02T18:18:25.112Z,22.90
2018-06-02T18:23:19.606Z,22.80
2018-06-02T18:28:13.980Z,22.60
2018-06-02T18:33:08.347Z,22.60
2018-06-02T18:38:03.472Z,22.30
2018-06-02T18:42:58.220Z,22.30
2018-06-02T18:47:52.574Z,22.20
2018-06-02T18:52:47.696Z,22.00
2018-06-02T18:57:42.816Z,21.90
2018-06-02T19:02:37.974Z,21.80
2018-06-02T19:07:32.320Z,21.80
2018-06-02T19:12:26.686Z,21.70
2018-06-02T19:17:21.169Z,21.60
2018-06-02T19:22:15.831Z,21.50
2018-06-02T19:27:10.177Z,21.40
2018-06-02T19:32:04.532Z,21.30
2018-06-02T19:36:58.898Z,21.20
2018-06-02T19:41:53.677Z,21.10
2018-06-02T19:46:48.854Z,20.90
2018-06-02T19:51:43.233Z,20.80
2018-06-02T19:56:37.630Z,20.70
2018-06-02T20:01:32.013Z,20.70
2018-06-02T20:06:27.263Z,20.40
2018-06-02T20:11:21.639Z,20.40
2018-06-02T20:16:15.999Z,20.30
2018-06-02T20:21:10.371Z,20.10
2018-06-02T20:26:04.736Z,20.00
2018-06-02T20:31:00.046Z,19.70
2018-06-02T20:35:54.524Z,19.70
2018-06-02T20:40:48.879Z,19.60
2018-06-02T20:45:43.310Z,19.50
2018-06-02T20:50:37.796Z,19.40
2018-06-02T20:55:32.178Z,19.40
2018-06-02T21:00:27.315Z,19.30
2018-06-02T21:05:21.768Z,19.30
2018-06-02T21:10:16.150Z,19.30
2018-06-02T21:15:10.528Z,19.30
2018-06-02T21:20:04.902Z,19.40
2018-06-02T21:25:00.031Z,19.50
2018-06-02T21:29:55.219Z,19.50
2018-06-02T21:34:49.579Z,19.40
2018-06-02T21:39:43.978Z,19.60
2018-06-02T21:44:38.343Z,19.60
2018-06-02T21:49:32.709Z,19.70
2018-06-02T21:54:27.107Z,19.80
2018-06-02T21:59:21.586Z,19.90
2018-06-02T22:04:15.951Z,19.90
2018-06-02T22:09:10.305Z,19.80
2018-06-02T22:14:04.735Z,19.80
2018-06-02T22:18:59.089Z,19.80
2018-06-02T22:23:57.717Z,19.80
2018-06-02T22:28:54.779Z,19.70
2018-06-02T22:33:50.008Z,19.70
2018-06-02T22:38:49.163Z,19.70
2018-06-02T22:43:44.062Z,19.70
2018-06-02T22:48:42.695Z,19.70
2018-06-02T22:53:38.522Z,19.70
2018-06-02T22:58:33.147Z,19.70
2018-06-02T23:03:28.499Z,19.60
2018-06-02T23:08:23.062Z,19.50
2018-06-02T23:13:18.358Z,19.50
2018-06-02T23:18:13.216Z,19.40
2018-06-02T23:23:08.063Z,19.40
2018-06-02T23:28:02.582Z,19.40
2018-06-02T23:32:57.704Z,19.40
2018-06-02T23:37:53.233Z,19.30
2018-06-02T23:42:47.644Z,19.20
2018-06-02T23:47:42.037Z,19.10
2018-06-02T23:52:36.470Z,19.00
2018-06-02T23:57:30.853Z,19.00
